createdAt,value
2018-07-01T00:00:01.188Z,786.58
2018-07-01T00:00:05.469Z,786.55
2018-07-01T00:00:09.990Z,786.57
2018-07-01T00:00:14.534Z,786.52
2018-07-01T00:00:19.322Z,786.5
2018-07-01T00:00:23.730Z,786.52
2018-07-01T00:00:28.040Z,786.52
2018-07-01T00:00:32.355Z,786.56
2018-07-01T00:00:36.570Z,786.5
2018-07-01T00:00:40.822Z,786.52
2018-07-01T00:00:44.819Z,786.51
2018-07-01T00:00:48.927Z,786.55
2018-07-01T00:00:53.134Z,786.53
2018-07-01T00:00:57.444Z,786.51
2018-07-01T00:01:01.764Z,786.5
2018-07-01T00:01:05.758Z,786.5
2018-07-01T00:01:09.964Z,786.52
2018-07-01T00:01:14.170Z,786.52
2018-07-01T00:01:18.547Z,786.47
2018-07-01T00:01:22.753Z,786.47
2018-07-01T00:01:26.957Z,786.45
2018-07-01T00:01:31.071Z,786.5
2018-07-01T00:01:35.281Z,786.5
2018-07-01T00:01:39.481Z,786.47
2018-07-01T00:01:43.685Z,786.48
2018-07-01T00:01:47.791Z,786.52
2018-07-01T00:01:51.896Z,786.52
2018-07-01T00:01:55.999Z,786.48
2018-07-01T00:02:00.308Z,786.5
2018-07-01T00:02:04.627Z,786.51
2018-07-01T00:02:08.743Z,786.52
2018-07-01T00:02:12.941Z,786.52
2018-07-01T00:02:17.263Z,786.53
2018-07-01T00:02:21.463Z,786.51
2018-07-01T00:02:25.669Z,786.48
2018-07-01T00:02:29.660Z,786.5
2018-07-01T00:02:33.980Z,786.52
2018-07-01T00:02:38.072Z,786.56
2018-07-01T00:02:42.292Z,786.53
2018-07-01T00:02:46.402Z,786.51
2018-07-01T00:02:50.606Z,786.5
2018-07-01T00:02:54.599Z,786.52
2018-07-01T00:02:58.922Z,786.54
2018-07-01T00:03:03.135Z,786.51
2018-07-01T00:03:07.348Z,786.53
2018-07-01T00:03:11.550Z,786.53
2018-07-01T00:03:15.649Z,786.48
2018-07-01T00:03:19.861Z,786.5
2018-07-01T00:03:24.182Z,786.5
2018-07-01T00:03:28.393Z,786.52
2018-07-01T00:03:32.492Z,786.5
2018-07-01T00:03:36.705Z,786.51
2018-07-01T00:03:40.915Z,786.52
2018-07-01T00:03:45.136Z,786.51
2018-07-01T00:03:49.237Z,786.53
2018-07-01T00:03:53.452Z,786.52
2018-07-01T00:03:57.555Z,786.54
2018-07-01T00:04:01.765Z,786.54
2018-07-01T00:04:05.874Z,786.52
2018-07-01T00:04:10.040Z,786.5
2018-07-01T00:04:14.261Z,786.49
2018-07-01T00:04:18.582Z,786.51
2018-07-01T00:04:22.792Z,786.52
2018-07-01T00:04:26.785Z,786.52
2018-07-01T00:04:30.999Z,786.46
2018-07-01T00:04:35.313Z,786.44
2018-07-01T00:04:39.517Z,786.52
2018-07-01T00:04:43.727Z,786.49
2018-07-01T00:04:47.831Z,786.5
2018-07-01T00:04:51.977Z,786.49
2018-07-01T00:04:56.182Z,786.46
2018-07-01T00:05:00.393Z,786.46
2018-07-01T00:05:04.494Z,786.47
2018-07-01T00:05:08.701Z,786.46
2018-07-01T00:05:12.905Z,786.49
2018-07-01T00:05:17.116Z,786.5
2018-07-01T00:05:21.318Z,786.47
2018-07-01T00:05:25.633Z,786.47
2018-07-01T00:05:29.953Z,786.41
2018-07-01T00:05:34.159Z,786.45
2018-07-01T00:05:38.369Z,786.47
2018-07-01T00:05:42.581Z,786.42
2018-07-01T00:05:46.688Z,786.43
2018-07-01T00:05:50.902Z,786.4
2018-07-01T00:05:55.213Z,786.47
2018-07-01T00:05:59.316Z,786.44
2018-07-01T00:06:03.416Z,786.46
2018-07-01T00:06:07.569Z,786.43
2018-07-01T00:06:11.892Z,786.42
2018-07-01T00:06:16.100Z,786.41
2018-07-01T00:06:20.459Z,786.44
2018-07-01T00:06:24.772Z,786.43
2018-07-01T00:06:29.094Z,786.4
2018-07-01T00:06:33.407Z,786.4
2018-07-01T00:06:37.724Z,786.41
2018-07-01T00:06:41.715Z,786.36
2018-07-01T00:06:45.811Z,786.4
2018-07-01T00:06:49.909Z,786.4
2018-07-01T00:06:54.010Z,786.38
2018-07-01T00:06:58.212Z,786.38
2018-07-01T00:07:02.529Z,786.37
2018-07-01T00:07:06.632Z,786.41
2018-07-01T00:07:10.947Z,786.39
2018-07-01T00:07:15.102Z,786.39
2018-07-01T00:07:19.414Z,786.39
2018-07-01T00:07:23.731Z,786.38
2018-07-01T00:07:27.933Z,786.37
2018-07-01T00:07:32.194Z,786.37
2018-07-01T00:07:36.300Z,786.38
2018-07-01T00:07:40.618Z,786.36
2018-07-01T00:07:44.715Z,786.38
2018-07-01T00:07:49.040Z,786.36
2018-07-01T00:07:53.153Z,786.34
2018-07-01T00:07:57.364Z,786.35
2018-07-01T00:08:01.573Z,786.36
2018-07-01T00:08:05.673Z,786.37
2018-07-01T00:08:09.766Z,786.34
2018-07-01T00:08:13.984Z,786.34
2018-07-01T00:08:18.298Z,786.34
2018-07-01T00:08:22.514Z,786.36
2018-07-01T00:08:26.722Z,786.37
2018-07-01T00:08:31.030Z,786.31
2018-07-01T00:08:35.340Z,786.32
2018-07-01T00:08:39.651Z,786.33
2018-07-01T00:08:43.967Z,786.31
2018-07-01T00:08:48.284Z,786.34
2018-07-01T00:08:52.481Z,786.32
2018-07-01T00:08:56.681Z,786.3
2018-07-01T00:09:00.997Z,786.34
2018-07-01T00:09:05.204Z,786.32
2018-07-01T00:09:09.408Z,786.3
2018-07-01T00:09:13.510Z,786.29
2018-07-01T00:09:17.713Z,786.24
2018-07-01T00:09:22.062Z,786.27
2018-07-01T00:09:26.264Z,786.32
2018-07-01T00:09:30.367Z,786.31
2018-07-01T00:09:34.577Z,786.29
2018-07-01T00:09:38.941Z,786.28
2018-07-01T00:09:43.156Z,786.26
2018-07-01T00:09:47.249Z,786.28
2018-07-01T00:09:51.452Z,786.29
2018-07-01T00:09:55.553Z,786.28
2018-07-01T00:09:59.758Z,786.23
2018-07-01T00:10:03.853Z,786.23
2018-07-01T00:10:08.061Z,786.24
2018-07-01T00:10:12.175Z,786.23
2018-07-01T00:10:16.283Z,786.25
2018-07-01T00:10:20.598Z,786.24
2018-07-01T00:10:24.797Z,786.27
2018-07-01T00:10:29.009Z,786.21
2018-07-01T00:10:33.212Z,786.24
2018-07-01T00:10:37.585Z,786.2
2018-07-01T00:10:42.067Z,786.18
2018-07-01T00:10:46.713Z,786.15
2018-07-01T00:10:51.328Z,786.19
2018-07-01T00:10:55.633Z,786.18
2018-07-01T00:10:59.952Z,786.2
2018-07-01T00:11:03.947Z,786.1
2018-07-01T00:11:08.275Z,786.13
2018-07-01T00:11:12.476Z,786.17
2018-07-01T00:11:16.680Z,786.13
2018-07-01T00:11:20.947Z,786.17
2018-07-01T00:11:25.050Z,786.08
2018-07-01T00:11:29.041Z,786.11
2018-07-01T00:11:33.154Z,786.09
2018-07-01T00:11:37.247Z,786.12
2018-07-01T00:11:41.344Z,786.11
2018-07-01T00:11:45.340Z,786.07
2018-07-01T00:11:49.549Z,786.1
2018-07-01T00:11:53.757Z,786.09
2018-07-01T00:11:57.959Z,786.04
2018-07-01T00:12:02.224Z,786.04
2018-07-01T00:12:06.428Z,786.03
2018-07-01T00:12:10.744Z,786.04
2018-07-01T00:12:14.959Z,785.99
2018-07-01T00:12:19.065Z,786.04
2018-07-01T00:12:23.386Z,785.99
2018-07-01T00:12:27.490Z,786.03
2018-07-01T00:12:31.869Z,786
2018-07-01T00:12:35.976Z,786.02
2018-07-01T00:12:40.298Z,786
2018-07-01T00:12:44.621Z,785.94
2018-07-01T00:12:48.824Z,785.9
2018-07-01T00:12:52.931Z,785.92
2018-07-01T00:12:57.246Z,785.95
2018-07-01T00:13:01.458Z,785.94
2018-07-01T00:13:05.661Z,785.97
2018-07-01T00:13:09.866Z,785.94
2018-07-01T00:13:14.074Z,785.95
2018-07-01T00:13:18.063Z,785.96
2018-07-01T00:13:22.263Z,785.91
2018-07-01T00:13:26.576Z,785.92
2018-07-01T00:13:30.681Z,785.89
2018-07-01T00:13:34.785Z,785.87
2018-07-01T00:13:38.662Z,785.85
2018-07-01T00:13:42.876Z,785.86
2018-07-01T00:13:46.981Z,785.87
2018-07-01T00:13:51.072Z,785.88
2018-07-01T00:13:55.279Z,785.84
2018-07-01T00:13:59.484Z,785.82
2018-07-01T00:14:03.795Z,785.83
2018-07-01T00:14:07.789Z,785.85
2018-07-01T00:14:11.995Z,785.83
2018-07-01T00:14:16.311Z,785.84
2018-07-01T00:14:20.305Z,785.81
2018-07-01T00:14:24.614Z,785.8
2018-07-01T00:14:28.504Z,785.82
2018-07-01T00:14:32.830Z,785.82
2018-07-01T00:14:37.155Z,785.8
2018-07-01T00:14:41.251Z,785.78
2018-07-01T00:14:45.456Z,785.79
2018-07-01T00:14:49.764Z,785.75
2018-07-01T00:14:54.070Z,785.69
2018-07-01T00:14:58.170Z,785.73
2018-07-01T00:15:02.385Z,785.74
2018-07-01T00:15:06.485Z,785.73
2018-07-01T00:15:10.585Z,785.74
2018-07-01T00:15:14.913Z,785.73
2018-07-01T00:15:19.121Z,785.69
2018-07-01T00:15:23.333Z,785.72
2018-07-01T00:15:27.536Z,785.72
2018-07-01T00:15:31.738Z,785.71
2018-07-01T00:15:35.622Z,785.72
2018-07-01T00:15:39.724Z,785.71
2018-07-01T00:15:43.930Z,785.68
2018-07-01T00:15:48.257Z,785.67
2018-07-01T00:15:52.464Z,785.68
2018-07-01T00:15:56.677Z,785.67
2018-07-01T00:16:00.881Z,785.69
2018-07-01T00:16:04.771Z,785.63
2018-07-01T00:16:08.972Z,785.67
2018-07-01T00:16:13.113Z,785.65
2018-07-01T00:16:17.388Z,785.64
2018-07-01T00:16:21.705Z,785.63
2018-07-01T00:16:25.805Z,785.61
2018-07-01T00:16:30.128Z,785.58
2018-07-01T00:16:34.228Z,785.6
2018-07-01T00:16:38.431Z,785.65
2018-07-01T00:16:42.532Z,785.59
2018-07-01T00:16:46.632Z,785.58
2018-07-01T00:16:50.941Z,785.62
2018-07-01T00:16:55.254Z,785.6
2018-07-01T00:16:59.459Z,785.58
2018-07-01T00:17:03.775Z,785.58
2018-07-01T00:17:07.982Z,785.6
2018-07-01T00:17:12.294Z,785.56
2018-07-01T00:17:16.608Z,785.58
2018-07-01T00:17:20.601Z,785.55
2018-07-01T00:17:24.805Z,785.57
2018-07-01T00:17:29.009Z,785.56
2018-07-01T00:17:33.115Z,785.57
2018-07-01T00:17:37.324Z,785.54
2018-07-01T00:17:41.639Z,785.54
2018-07-01T00:17:45.643Z,785.56
2018-07-01T00:17:49.869Z,785.54
2018-07-01T00:17:54.179Z,785.55
2018-07-01T00:17:58.505Z,785.51
2018-07-01T00:18:02.701Z,785.54
2018-07-01T00:18:06.799Z,785.53
2018-07-01T00:18:11.017Z,785.52
2018-07-01T00:18:15.235Z,785.53
2018-07-01T00:18:19.545Z,785.48
2018-07-01T00:18:23.761Z,785.52
2018-07-01T00:18:28.080Z,785.51
2018-07-01T00:18:32.288Z,785.53
2018-07-01T00:18:36.521Z,785.48
2018-07-01T00:18:40.830Z,785.47
2018-07-01T00:18:45.039Z,785.49
2018-07-01T00:18:49.250Z,785.5
2018-07-01T00:18:53.453Z,785.47
2018-07-01T00:18:57.658Z,785.45
2018-07-01T00:19:01.982Z,785.46
2018-07-01T00:19:06.185Z,785.4
2018-07-01T00:19:10.283Z,785.43
2018-07-01T00:19:14.485Z,785.44
2018-07-01T00:19:18.474Z,785.39
2018-07-01T00:19:22.786Z,785.45
2018-07-01T00:19:26.779Z,785.45
2018-07-01T00:19:30.778Z,785.44
2018-07-01T00:19:34.876Z,785.41
2018-07-01T00:19:39.098Z,785.43
2018-07-01T00:19:43.101Z,785.43
2018-07-01T00:19:47.375Z,785.41
2018-07-01T00:19:51.577Z,785.41
2018-07-01T00:19:55.568Z,785.41
2018-07-01T00:19:59.773Z,785.41
2018-07-01T00:20:03.776Z,785.39
2018-07-01T00:20:07.987Z,785.35
2018-07-01T00:20:12.148Z,785.41
2018-07-01T00:20:16.367Z,785.38
2018-07-01T00:20:20.579Z,785.39
2018-07-01T00:20:24.790Z,785.4
2018-07-01T00:20:29.001Z,785.31
2018-07-01T00:20:33.313Z,785.37
2018-07-01T00:20:37.517Z,785.38
2018-07-01T00:20:41.725Z,785.36
2018-07-01T00:20:45.715Z,785.34
2018-07-01T00:20:49.708Z,785.35
2018-07-01T00:20:54.039Z,785.34
2018-07-01T00:20:58.247Z,785.36
2018-07-01T00:21:02.453Z,785.36
2018-07-01T00:21:06.658Z,785.34
2018-07-01T00:21:10.972Z,785.33
2018-07-01T00:21:15.183Z,785.32
2018-07-01T00:21:19.495Z,785.29
2018-07-01T00:21:23.486Z,785.26
2018-07-01T00:21:27.578Z,785.33
2018-07-01T00:21:31.892Z,785.3
2018-07-01T00:21:36.094Z,785.31
2018-07-01T00:21:40.410Z,785.29
2018-07-01T00:21:44.728Z,785.31
2018-07-01T00:21:48.835Z,785.29
2018-07-01T00:21:53.047Z,785.23
2018-07-01T00:21:57.257Z,785.27
2018-07-01T00:22:01.528Z,785.32
2018-07-01T00:22:05.842Z,785.28
2018-07-01T00:22:10.069Z,785.29
2018-07-01T00:22:14.282Z,785.29
2018-07-01T00:22:18.385Z,785.25
2018-07-01T00:22:22.698Z,785.28
2018-07-01T00:22:26.795Z,785.29
2018-07-01T00:22:30.997Z,785.29
2018-07-01T00:22:35.208Z,785.26
2018-07-01T00:22:39.412Z,785.23
2018-07-01T00:22:43.743Z,785.25
2018-07-01T00:22:48.001Z,785.26
2018-07-01T00:22:52.327Z,785.25
2018-07-01T00:22:56.530Z,785.23
2018-07-01T00:23:00.736Z,785.25
2018-07-01T00:23:04.905Z,785.25
2018-07-01T00:23:09.189Z,785.27
2018-07-01T00:23:13.401Z,785.25
2018-07-01T00:23:17.604Z,785.25
2018-07-01T00:23:21.935Z,785.27
2018-07-01T00:23:26.145Z,785.26
2018-07-01T00:23:30.351Z,785.17
2018-07-01T00:23:34.719Z,785.2
2018-07-01T00:23:39.037Z,785.2
2018-07-01T00:23:43.237Z,785.23
2018-07-01T00:23:47.440Z,785.23
2018-07-01T00:23:51.766Z,785.23
2018-07-01T00:23:55.975Z,785.2
2018-07-01T00:24:00.286Z,785.19
2018-07-01T00:24:04.180Z,785.2
2018-07-01T00:24:08.281Z,785.2
2018-07-01T00:24:12.272Z,785.21
2018-07-01T00:24:16.485Z,785.19
2018-07-01T00:24:20.696Z,785.2
2018-07-01T00:24:24.798Z,785.11
2018-07-01T00:24:29.145Z,785.15
2018-07-01T00:24:33.457Z,785.14
2018-07-01T00:24:37.777Z,785.15
2018-07-01T00:24:41.986Z,785.14
2018-07-01T00:24:46.300Z,785.14
2018-07-01T00:24:50.499Z,785.15
2018-07-01T00:24:54.708Z,785.17
2018-07-01T00:24:59.018Z,785.14
2018-07-01T00:25:03.340Z,785.11
2018-07-01T00:25:07.445Z,785.15
2018-07-01T00:25:11.544Z,785.15
2018-07-01T00:25:15.856Z,785.12
2018-07-01T00:25:20.172Z,785.12
2018-07-01T00:25:24.495Z,785.13
2018-07-01T00:25:28.811Z,785.14
2018-07-01T00:25:33.122Z,785.14
2018-07-01T00:25:37.217Z,785.14
2018-07-01T00:25:41.574Z,785.11
2018-07-01T00:25:45.782Z,785.12
2018-07-01T00:25:49.986Z,785.15
2018-07-01T00:25:54.295Z,785.11
2018-07-01T00:25:58.606Z,785.1
2018-07-01T00:26:02.828Z,785.1
2018-07-01T00:26:06.938Z,785.12
2018-07-01T00:26:11.258Z,785.1
2018-07-01T00:26:15.467Z,785.12
2018-07-01T00:26:19.788Z,785.1
2018-07-01T00:26:23.778Z,785.08
2018-07-01T00:26:27.883Z,785.07
2018-07-01T00:26:32.196Z,785.1
2018-07-01T00:26:36.295Z,785.07
2018-07-01T00:26:40.390Z,785.06
2018-07-01T00:26:44.594Z,785.06
2018-07-01T00:26:48.590Z,785.02
2018-07-01T00:26:52.907Z,785.07
2018-07-01T00:26:57.116Z,785.01
2018-07-01T00:27:01.323Z,785.07
2018-07-01T00:27:05.440Z,785.05
2018-07-01T00:27:09.549Z,785.05
2018-07-01T00:27:13.545Z,785.06
2018-07-01T00:27:17.746Z,785.06
2018-07-01T00:27:21.951Z,785.05
2018-07-01T00:27:26.267Z,785.02
2018-07-01T00:27:30.363Z,785.01
2018-07-01T00:27:34.668Z,785.01
2018-07-01T00:27:38.868Z,784.99
2018-07-01T00:27:43.076Z,785
2018-07-01T00:27:47.172Z,784.99
2018-07-01T00:27:51.482Z,784.98
2018-07-01T00:27:55.791Z,784.99
2018-07-01T00:28:00.101Z,785.01
2018-07-01T00:28:04.200Z,785.02
2018-07-01T00:28:08.519Z,785.02
2018-07-01T00:28:12.838Z,785.03
2018-07-01T00:28:17.157Z,785.03
2018-07-01T00:28:21.484Z,784.99
2018-07-01T00:28:25.795Z,784.98
2018-07-01T00:28:30.000Z,785
2018-07-01T00:28:34.214Z,785.01
2018-07-01T00:28:38.431Z,784.97
2018-07-01T00:28:42.791Z,784.91
2018-07-01T00:28:46.888Z,784.93
2018-07-01T00:28:50.992Z,784.97
2018-07-01T00:28:55.197Z,784.95
2018-07-01T00:28:59.402Z,784.93
2018-07-01T00:29:03.506Z,784.91
2018-07-01T00:29:07.500Z,784.88
2018-07-01T00:29:11.706Z,784.95
2018-07-01T00:29:15.913Z,784.89
2018-07-01T00:29:20.226Z,784.93
2018-07-01T00:29:24.427Z,784.95
2018-07-01T00:29:28.321Z,784.94
2018-07-01T00:29:32.535Z,784.93
2018-07-01T00:29:36.742Z,784.91
2018-07-01T00:29:40.735Z,784.92
2018-07-01T00:30:17.046Z,784.91
2018-07-01T00:30:21.035Z,784.93
2018-07-01T00:30:25.237Z,784.92
2018-07-01T00:30:29.544Z,784.9
2018-07-01T00:30:33.856Z,784.89
2018-07-01T00:30:38.058Z,784.86
2018-07-01T00:30:42.274Z,784.89
2018-07-01T00:30:46.593Z,784.9
2018-07-01T00:30:50.697Z,784.91
2018-07-01T00:30:55.009Z,784.89
2018-07-01T00:30:59.214Z,784.86
2018-07-01T00:31:03.324Z,784.86
2018-07-01T00:31:07.520Z,784.9
2018-07-01T00:31:11.728Z,784.88
2018-07-01T00:31:16.041Z,784.86
2018-07-01T00:31:20.406Z,784.9
2018-07-01T00:31:24.613Z,784.89
2018-07-01T00:31:28.706Z,784.89
2018-07-01T00:31:32.908Z,784.88
2018-07-01T00:31:37.005Z,784.81
2018-07-01T00:31:41.105Z,784.88
2018-07-01T00:31:45.307Z,784.87
2018-07-01T00:31:49.512Z,784.87
2018-07-01T00:31:53.831Z,784.85
2018-07-01T00:31:58.044Z,784.82
2018-07-01T00:32:02.247Z,784.84
2018-07-01T00:32:06.350Z,784.83
2018-07-01T00:32:10.354Z,784.86
2018-07-01T00:32:14.617Z,784.84
2018-07-01T00:32:18.714Z,784.82
2018-07-01T00:32:22.926Z,784.8
2018-07-01T00:32:27.129Z,784.79
2018-07-01T00:32:31.446Z,784.82
2018-07-01T00:32:35.758Z,784.76
2018-07-01T00:32:39.962Z,784.72
2018-07-01T00:32:44.179Z,784.75
2018-07-01T00:32:48.283Z,784.76
2018-07-01T00:32:52.597Z,784.81
2018-07-01T00:32:56.911Z,784.79
2018-07-01T00:33:01.224Z,784.77
2018-07-01T00:33:05.324Z,784.76
2018-07-01T00:33:09.643Z,784.76
2018-07-01T00:33:13.760Z,784.77
2018-07-01T00:33:17.753Z,784.73
2018-07-01T00:33:21.961Z,784.71
2018-07-01T00:33:26.272Z,784.72
2018-07-01T00:33:30.378Z,784.77
2018-07-01T00:33:34.583Z,784.75
2018-07-01T00:33:38.790Z,784.76
2018-07-01T00:33:43.105Z,784.79
2018-07-01T00:33:47.304Z,784.77
2018-07-01T00:33:51.506Z,784.74
2018-07-01T00:33:55.824Z,784.77
2018-07-01T00:34:00.151Z,784.75
2018-07-01T00:34:04.346Z,784.75
2018-07-01T00:34:08.454Z,784.74
2018-07-01T00:34:12.664Z,784.74
2018-07-01T00:34:16.862Z,784.75
2018-07-01T00:34:20.960Z,784.73
2018-07-01T00:34:24.949Z,784.73
2018-07-01T00:34:28.943Z,784.73
2018-07-01T00:34:33.250Z,784.74
2018-07-01T00:34:37.558Z,784.71
2018-07-01T00:34:41.766Z,784.71
2018-07-01T00:34:45.964Z,784.73
2018-07-01T00:34:50.061Z,784.71
2018-07-01T00:34:54.266Z,784.7
2018-07-01T00:34:58.268Z,784.68
2018-07-01T00:35:02.366Z,784.73
2018-07-01T00:35:06.572Z,784.7
2018-07-01T00:35:10.781Z,784.7
2018-07-01T00:35:14.985Z,784.71
2018-07-01T00:35:19.292Z,784.68
2018-07-01T00:35:23.606Z,784.71
2018-07-01T00:35:27.834Z,784.7
2018-07-01T00:35:31.824Z,784.69
2018-07-01T00:35:36.135Z,784.67
2018-07-01T00:35:40.379Z,784.7
2018-07-01T00:35:44.692Z,784.7
2018-07-01T00:35:48.889Z,784.67
2018-07-01T00:35:53.091Z,784.68
2018-07-01T00:35:57.191Z,784.67
2018-07-01T00:36:01.400Z,784.68
2018-07-01T00:36:05.510Z,784.68
2018-07-01T00:36:09.722Z,784.69
2018-07-01T00:36:14.032Z,784.66
2018-07-01T00:36:18.242Z,784.66
2018-07-01T00:36:22.449Z,784.66
2018-07-01T00:36:26.546Z,784.66
2018-07-01T00:36:30.860Z,784.64
2018-07-01T00:36:35.068Z,784.62
2018-07-01T00:36:39.270Z,784.63
2018-07-01T00:36:43.478Z,784.65
2018-07-01T00:36:47.569Z,784.65
2018-07-01T00:36:51.877Z,784.65
2018-07-01T00:36:56.187Z,784.64
2018-07-01T00:37:00.392Z,784.64
2018-07-01T00:37:04.599Z,784.64
2018-07-01T00:37:08.591Z,784.63
2018-07-01T00:37:12.798Z,784.63
2018-07-01T00:37:17.000Z,784.65
2018-07-01T00:37:21.309Z,784.57
2018-07-01T00:37:25.509Z,784.61
2018-07-01T00:37:29.771Z,784.58
2018-07-01T00:37:33.978Z,784.64
2018-07-01T00:37:38.078Z,784.6
2018-07-01T00:37:42.174Z,784.6
2018-07-01T00:37:46.381Z,784.61
2018-07-01T00:37:50.685Z,784.6
2018-07-01T00:37:54.902Z,784.61
2018-07-01T00:37:59.205Z,784.61
2018-07-01T00:38:03.426Z,784.59
2018-07-01T00:38:07.642Z,784.56
2018-07-01T00:38:11.960Z,784.58
2018-07-01T00:38:16.329Z,784.59
2018-07-01T00:38:20.426Z,784.6
2018-07-01T00:38:24.748Z,784.61
2018-07-01T00:38:29.065Z,784.59
2018-07-01T00:38:33.163Z,784.55
2018-07-01T00:38:37.369Z,784.53
2018-07-01T00:38:41.573Z,784.55
2018-07-01T00:38:45.674Z,784.55
2018-07-01T00:38:49.878Z,784.52
2018-07-01T00:38:54.081Z,784.57
2018-07-01T00:38:58.283Z,784.55
2018-07-01T00:39:02.599Z,784.56
2018-07-01T00:39:06.807Z,784.55
2018-07-01T00:39:10.803Z,784.59
2018-07-01T00:39:15.016Z,784.54
2018-07-01T00:39:19.226Z,784.5
2018-07-01T00:39:23.216Z,784.55
2018-07-01T00:39:27.129Z,784.5
2018-07-01T00:39:31.227Z,784.54
2018-07-01T00:39:35.333Z,784.54
2018-07-01T00:39:39.578Z,784.52
2018-07-01T00:39:43.888Z,784.55
2018-07-01T00:39:48.092Z,784.54
2018-07-01T00:39:52.303Z,784.52
2018-07-01T00:39:56.502Z,784.54
2018-07-01T00:40:00.834Z,784.53
2018-07-01T00:40:04.831Z,784.49
2018-07-01T00:40:08.941Z,784.53
2018-07-01T00:40:13.042Z,784.53
2018-07-01T00:40:17.031Z,784.54
2018-07-01T00:40:21.341Z,784.55
2018-07-01T00:40:25.662Z,784.54
2018-07-01T00:40:29.876Z,784.56
2018-07-01T00:40:34.199Z,784.53
2018-07-01T00:40:38.296Z,784.49
2018-07-01T00:40:42.611Z,784.55
2018-07-01T00:40:46.713Z,784.53
2018-07-01T00:40:51.026Z,784.53
2018-07-01T00:40:55.229Z,784.53
2018-07-01T00:40:59.538Z,784.5
2018-07-01T00:41:03.633Z,784.51
2018-07-01T00:41:07.621Z,784.55
2018-07-01T00:41:11.827Z,784.57
2018-07-01T00:41:15.923Z,784.56
2018-07-01T00:41:20.019Z,784.56
2018-07-01T00:41:24.334Z,784.56
2018-07-01T00:41:28.542Z,784.59
2018-07-01T00:41:32.797Z,784.54
2018-07-01T00:41:37.107Z,784.58
2018-07-01T00:41:41.093Z,784.51
2018-07-01T00:41:45.412Z,784.54
2018-07-01T00:41:49.622Z,784.55
2018-07-01T00:41:53.722Z,784.53
2018-07-01T00:41:57.928Z,784.54
2018-07-01T00:42:02.132Z,784.58
2018-07-01T00:42:06.240Z,784.55
2018-07-01T00:42:10.339Z,784.5
2018-07-01T00:42:14.646Z,784.57
2018-07-01T00:42:18.860Z,784.53
2018-07-01T00:42:23.073Z,784.55
2018-07-01T00:42:27.284Z,784.49
2018-07-01T00:42:31.590Z,784.52
2018-07-01T00:42:35.910Z,784.54
2018-07-01T00:42:40.262Z,784.56
2018-07-01T00:42:44.354Z,784.55
2018-07-01T00:42:48.557Z,784.53
2018-07-01T00:42:52.870Z,784.55
2018-07-01T00:42:57.179Z,784.54
2018-07-01T00:43:01.384Z,784.54
2018-07-01T00:43:05.590Z,784.53
2018-07-01T00:43:09.906Z,784.55
2018-07-01T00:43:13.894Z,784.55
2018-07-01T00:43:18.104Z,784.54
2018-07-01T00:43:22.303Z,784.53
2018-07-01T00:43:26.512Z,784.54
2018-07-01T00:43:30.828Z,784.52
2018-07-01T00:43:34.923Z,784.51
2018-07-01T00:43:39.242Z,784.56
2018-07-01T00:43:43.440Z,784.53
2018-07-01T00:43:47.659Z,784.53
2018-07-01T00:43:51.870Z,784.52
2018-07-01T00:43:56.182Z,784.58
2018-07-01T00:44:00.277Z,784.55
2018-07-01T00:44:04.591Z,784.51
2018-07-01T00:44:08.899Z,784.52
2018-07-01T00:44:13.206Z,784.53
2018-07-01T00:44:17.304Z,784.52
2018-07-01T00:44:21.614Z,784.55
2018-07-01T00:44:25.824Z,784.52
2018-07-01T00:44:30.023Z,784.52
2018-07-01T00:44:34.124Z,784.53
2018-07-01T00:44:38.126Z,784.52
2018-07-01T00:44:42.337Z,784.53
2018-07-01T00:44:46.537Z,784.52
2018-07-01T00:44:50.846Z,784.54
2018-07-01T00:44:54.939Z,784.52
2018-07-01T00:44:59.139Z,784.53
2018-07-01T00:45:03.457Z,784.48
2018-07-01T00:45:07.672Z,784.55
2018-07-01T00:45:11.982Z,784.49
2018-07-01T00:45:16.296Z,784.51
2018-07-01T00:45:20.608Z,784.48
2018-07-01T00:45:24.810Z,784.43
2018-07-01T00:45:29.119Z,784.45
2018-07-01T00:45:33.448Z,784.48
2018-07-01T00:45:37.753Z,784.47
2018-07-01T00:45:42.061Z,784.47
2018-07-01T00:45:46.262Z,784.48
2018-07-01T00:45:50.470Z,784.45
2018-07-01T00:45:54.730Z,784.45
2018-07-01T00:45:59.044Z,784.43
2018-07-01T00:46:03.143Z,784.46
2018-07-01T00:46:07.457Z,784.47
2018-07-01T00:46:11.768Z,784.47
2018-07-01T00:46:15.871Z,784.42
2018-07-01T00:46:20.076Z,784.46
2018-07-01T00:46:24.178Z,784.46
2018-07-01T00:46:28.280Z,784.46
2018-07-01T00:46:32.483Z,784.46
2018-07-01T00:46:36.684Z,784.46
2018-07-01T00:46:40.790Z,784.44
2018-07-01T00:46:45.000Z,784.46
2018-07-01T00:46:49.311Z,784.44
2018-07-01T00:46:53.307Z,784.45
2018-07-01T00:46:57.619Z,784.47
2018-07-01T00:47:01.923Z,784.44
2018-07-01T00:47:06.134Z,784.44
2018-07-01T00:47:10.341Z,784.44
2018-07-01T00:47:14.552Z,784.44
2018-07-01T00:47:18.768Z,784.43
2018-07-01T00:47:22.969Z,784.45
2018-07-01T00:47:27.173Z,784.44
2018-07-01T00:47:31.491Z,784.44
2018-07-01T00:47:35.696Z,784.42
2018-07-01T00:47:39.590Z,784.44
2018-07-01T00:47:43.900Z,784.39
2018-07-01T00:47:47.994Z,784.42
2018-07-01T00:47:52.314Z,784.41
2018-07-01T00:47:56.677Z,784.41
2018-07-01T00:48:00.893Z,784.41
2018-07-01T00:48:04.999Z,784.4
2018-07-01T00:48:08.989Z,784.39
2018-07-01T00:48:13.301Z,784.41
2018-07-01T00:48:17.513Z,784.41
2018-07-01T00:48:21.716Z,784.37
2018-07-01T00:48:25.813Z,784.33
2018-07-01T00:48:30.132Z,784.37
2018-07-01T00:48:34.342Z,784.38
2018-07-01T00:48:38.547Z,784.38
2018-07-01T00:48:42.750Z,784.38
2018-07-01T00:48:46.948Z,784.38
2018-07-01T00:48:51.263Z,784.34
2018-07-01T00:48:55.570Z,784.38
2018-07-01T00:48:59.823Z,784.36
2018-07-01T00:49:04.139Z,784.35
2018-07-01T00:49:08.348Z,784.34
2018-07-01T00:49:12.554Z,784.34
2018-07-01T00:49:16.649Z,784.37
2018-07-01T00:49:20.850Z,784.28
2018-07-01T00:49:24.948Z,784.26
2018-07-01T00:49:29.045Z,784.34
2018-07-01T00:49:33.254Z,784.32
2018-07-01T00:49:37.561Z,784.3
2018-07-01T00:49:41.764Z,784.33
2018-07-01T00:49:45.977Z,784.32
2018-07-01T00:49:50.073Z,784.33
2018-07-01T00:49:54.067Z,784.32
2018-07-01T00:49:58.274Z,784.31
2018-07-01T00:50:02.382Z,784.3
2018-07-01T00:50:06.591Z,784.29
2018-07-01T00:50:10.803Z,784.32
2018-07-01T00:50:15.115Z,784.29
2018-07-01T00:50:19.212Z,784.26
2018-07-01T00:50:23.419Z,784.28
2018-07-01T00:50:27.639Z,784.29
2018-07-01T00:50:31.739Z,784.29
2018-07-01T00:50:35.835Z,784.22
2018-07-01T00:50:39.825Z,784.28
2018-07-01T00:50:44.146Z,784.27
2018-07-01T00:50:48.354Z,784.28
2018-07-01T00:50:52.662Z,784.29
2018-07-01T00:50:56.973Z,784.29
2018-07-01T00:51:01.288Z,784.23
2018-07-01T00:51:05.283Z,784.24
2018-07-01T00:51:09.588Z,784.24
2018-07-01T00:51:13.801Z,784.23
2018-07-01T00:51:18.006Z,784.26
2018-07-01T00:51:22.222Z,784.23
2018-07-01T00:51:26.424Z,784.22
2018-07-01T00:51:30.622Z,784.24
2018-07-01T00:51:34.725Z,784.22
2018-07-01T00:51:39.040Z,784.16
2018-07-01T00:51:43.142Z,784.16
2018-07-01T00:51:47.353Z,784.21
2018-07-01T00:51:51.695Z,784.21
2018-07-01T00:51:55.908Z,784.21
2018-07-01T00:52:00.121Z,784.17
2018-07-01T00:52:04.110Z,784.2
2018-07-01T00:52:08.110Z,784.12
2018-07-01T00:52:12.314Z,784.1
2018-07-01T00:52:16.629Z,784.13
2018-07-01T00:52:20.941Z,784.18
2018-07-01T00:52:25.035Z,784.18
2018-07-01T00:52:29.239Z,784.15
2018-07-01T00:52:33.448Z,784.17
2018-07-01T00:52:37.650Z,784.16
2018-07-01T00:52:41.901Z,784.15
2018-07-01T00:52:46.209Z,784.12
2018-07-01T00:52:50.308Z,784.13
2018-07-01T00:52:54.616Z,784.12
2018-07-01T00:52:58.928Z,784.16
2018-07-01T00:53:03.024Z,784.1
2018-07-01T00:53:07.226Z,784.1
2018-07-01T00:53:11.433Z,784.07